x

West Moresby (46208) Wave Buoy

10:00am - Fri 2nd Dec 2016 All times are PST. -8 hours from GMT.

  • Sig Wave height 33.5ft
  • Peak Period 16s
  • Wind
    36mph, 45mph gusts
  • Sea Temp 50°f
  • Air Temp 49°f
  • Sea Pressure 1003.5mb
  • West Moresby
  • West Moresby

More Historic Weather Station data

Upgrade to MSW Pro to gain access to the past 30 days of data for over 8000 Wavebouys and Weather Stations around the globe.

Join Pro

Comparision Forecast

View Surf forecast
   
Fri 12/02 10:00am 33.5ft 16s 36 45 mph 1003.5mb 50f 49f
9:00am 28.5ft 12s 29 43 mph 1003.6mb 50f 44f
8:00am 26.5ft 13s 36 45 mph 1002.1mb 50f 49f
7:00am 24ft 14s 31 43 mph 1001.5mb 50f 49f
6:00am 22.5ft 12s 27 36 mph 1001.3mb 50f 48f
5:00am 20.5ft 11s 27 36 mph 1000.6mb 50f 49f
4:00am 18ft 12s 29 36 mph 1000mb 50f 49f
3:00am 19ft 10s 34 43 mph 999.3mb 50f 50f
2:00am 16.5ft 8s 31 43 mph 998.8mb 50f 51f
1:00am 17.5ft 9s 31 40 mph 998.4mb 50f 51f
12:00am 19ft 9s 29 38 mph 998.4mb 50f 52f
Thu 12/01 11:00pm 18.5ft 8s 34 40 mph 998.8mb 50f 51f
10:00pm 16.5ft 8s 40 51 mph 999.5mb 50f 48f
9:00pm 15ft 12s 40 54 mph 1001.5mb 50f 48f
8:00pm 15ft 11s 40 49 mph 1003.7mb 50f 47f
6:00pm 14.5ft 12s 31 40 mph 1008.1mb 50f 47f
5:00pm 14ft 12s 27 34 mph 1010mb 50f 49f
4:00pm  -   -  22
mph
- - -
3:00pm 15.5ft 12s 22 29 mph 1013mb 50f 49f
2:00pm 14.5ft 12s 18 22 mph 1013.2mb 50f 49f
1:00pm 14ft 12s 13 18 mph 1012.8mb 50f 49f
12:00pm 14ft 11s 13 20 mph 1013mb 50f 49f
11:00am 14.5ft 12s 16 18 mph 1013.8mb 50f 49f
9:00am 13.5ft 12s 20 25 mph 1012.4mb 50f 49f
8:00am 14ft 12s 18 31 mph 1011.1mb 50f 46f
7:00am 14ft 11s 18 22 mph 1010.1mb 50f 48f
6:00am 14ft 11s 22 27 mph 1009.1mb 50f 49f
5:00am 13.5ft 12s 22 31 mph 1008.6mb 50f 49f
4:00am 15ft 11s 20 25 mph 1008.1mb 50f 50f
3:00am 13.5ft 11s 27 38 mph 1007.4mb 50f 49f
2:00am 12.5ft 11s 27 36 mph 1008.2mb 50f 49f
1:00am 12.5ft 11s 29 36 mph 1009.6mb 50f 48f
12:00am 12ft 12s 25 31 mph 1010.5mb 50f 49f
Wed 11/30 11:00pm 12ft 11s 22 29 mph 1011.5mb 50f 48f
10:00pm 12ft 12s 25 29 mph 1012.5mb 50f 48f
9:00pm  -   -  18
mph
1013.7mb - 47f
8:00pm 13ft 12s 20 27 mph 1014.3mb 50f 47f
7:00pm 15ft 12s 18 22 mph 1014.9mb 50f 46f
6:00pm 15ft 13s 16 18 mph 1015.4mb 50f 48f
5:00pm 16.5ft 12s 9 13 mph 1015.9mb 50f 46f
4:00pm 15.5ft 13s 11 16 mph 1016mb 50f 46f
2:00pm 15.5ft 12s 13 18 mph 1015.7mb 50f 46f
1:00pm 17.5ft 12s 11 16 mph 1015.7mb 50f 47f
12:00pm 15.5ft 13s 13 20 mph 1015.5mb 50f 48f
11:00am 15.5ft 13s 18 22 mph 1015.5mb 50f 47f
10:00am 18ft 13s 20 25 mph 1014.8mb 50f 47f
9:00am 19ft 13s 20 27 mph 1013.9mb 50f 47f
8:00am 19.5ft 13s 22 29 mph 1012.8mb 50f 47f
7:00am 21ft 14s 22 31 mph 1012mb 50f 47f
6:00am 22ft 14s 22 31 mph 1011.1mb 50f 47f
5:00am 21.5ft 14s 27 36 mph 1010.2mb 50f 47f
4:00am 22ft 15s 25 31 mph 1009.1mb 50f 48f
2:00am 19.5ft 16s 29 34 mph 1007mb 50f 48f
1:00am 20.5ft 12s 27 38 mph 1005.8mb 50f 48f
12:00am 19.5ft 16s 27 36 mph 1004.6mb 50f 47f
Tue 11/29 11:00pm 20ft 14s 31 40 mph 1003mb 50f 48f
10:00pm 17.5ft 14s 27 40 mph 1001.5mb 50f 49f
9:00pm 16.5ft 10s 29 38 mph 999.6mb 50f 49f
8:00pm 17ft 10s 25 34 mph 998.7mb 50f 48f
7:00pm 16.5ft 11s 9 16 mph 998.6mb 50f 45f
6:00pm 16ft 10s 11 13 mph 998mb 50f 46f
5:00pm 16.5ft 11s 18 25 mph 997.6mb 50f 45f
4:00pm 18ft 10s 22 29 mph 996.8mb 50f 45f
3:00pm 19.5ft 10s 20 27 mph 995.5mb 50f 45f
2:00pm 19.5ft 10s 27 34 mph 994.2mb 50f 45f
1:00pm 20.5ft 10s 36 43 mph 993.3mb 50f 51f
12:00pm 18.5ft 10s 34 43 mph 994.2mb 50f 51f
11:00am  -   -  38
mph
995mb - 51f
10:00am 19.5ft 10s 36 45 mph 995.9mb 50f 52f
9:00am 18.5ft 9s 36 45 mph 996.1mb 50f 51f
8:00am 18ft 9s 36 43 mph 997mb 50f 50f
7:00am 18ft 10s 36 45 mph 998.2mb 50f 50f
6:00am 15.5ft 10s 36 43 mph 999.7mb 50f 50f
5:00am 17.5ft 8s 34 43 mph 1000.9mb 50f 50f
4:00am 16ft 8s 31 40 mph 1001.9mb 50f 50f
3:00am 16.5ft 14s 31 40 mph 1002.9mb 50f 50f
2:00am 15.5ft 14s 36 45 mph 1003.6mb 50f 49f
1:00am 15ft 14s 31 40 mph 1005mb 50f 49f
12:00am 16ft 15s 31 40 mph 1006.5mb 50f 48f
Mon 11/28 11:00pm 15ft 15s 31 40 mph 1007.8mb 50f 47f
10:00pm 15.5ft 15s 27 36 mph 1009mb 50f 47f
9:00pm 17ft 14s 27 34 mph 1010.5mb 50f 47f
8:00pm 16.5ft 15s 22 29 mph 1011.5mb 50f 47f